Time;durP1;ratioP1;P1;durP2;ratioP2;P2;SDS_P1;SDS_P2;PMS_P1;PMS_P2;Temp;Humidity;BMP_temperature;BMP_pressure;BME280_temperature;BME280_humidity;BME280_pressure;Samples;Min_cycle;Max_cycle;Signal;HPM_P1;HPM_P2
2021/06/22 00:01:02;;;;;;;12.40;3.90;;;14.00;87.40;;;;;;5076468;28;20028;-79
2021/06/22 00:03:28;;;;;;;11.25;3.90;;;14.00;87.50;;;;;;5074233;28;20040;-80
2021/06/22 00:05:54;;;;;;;8.75;3.35;;;14.00;87.60;;;;;;5090189;28;20032;-80
2021/06/22 00:08:19;;;;;;;10.15;3.78;;;14.00;87.80;;;;;;5091046;28;20027;-80
2021/06/22 00:10:45;;;;;;;11.77;3.95;;;14.00;87.80;;;;;;5091755;28;20028;-80
2021/06/22 00:13:11;;;;;;;8.60;3.38;;;13.90;88.20;;;;;;5091875;28;20060;-80
2021/06/22 00:15:36;;;;;;;7.90;3.95;;;13.90;88.20;;;;;;5092117;28;20020;-80
2021/06/22 00:18:02;;;;;;;9.60;3.15;;;13.90;88.30;;;;;;5091874;28;20103;-80
2021/06/22 00:20:28;;;;;;;9.25;3.80;;;13.90;88.60;;;;;;5094108;28;20032;-81
2021/06/22 00:22:54;;;;;;;10.70;3.35;;;13.90;88.90;;;;;;5096819;28;20031;-80
2021/06/22 00:25:21;;;;;;;11.60;4.10;;;13.90;88.80;;;;;;5096948;28;20476;-79
2021/06/22 00:27:47;;;;;;;10.82;4.78;;;13.90;88.90;;;;;;5096621;28;20024;-80
2021/06/22 00:30:14;;;;;;;10.77;4.13;;;13.90;89.00;;;;;;5095499;28;20024;-80
2021/06/22 00:32:40;;;;;;;10.43;4.10;;;13.90;89.10;;;;;;5095582;28;20028;-80
2021/06/22 00:35:07;;;;;;;9.07;4.07;;;13.90;89.10;;;;;;5095367;28;20032;-80
2021/06/22 00:37:32;;;;;;;14.85;4.07;;;13.90;89.20;;;;;;5095241;28;20414;-80
2021/06/22 00:39:58;;;;;;;11.70;4.70;;;14.00;89.40;;;;;;5095359;28;20053;-80
2021/06/22 00:42:24;;;;;;;7.97;4.05;;;13.90;89.20;;;;;;5095181;28;20028;-80
2021/06/22 00:44:52;;;;;;;9.98;4.05;;;13.90;89.70;;;;;;5095198;28;20101;-80
2021/06/22 00:47:19;;;;;;;10.50;4.57;;;13.90;90.10;;;;;;5096293;28;20024;-80
2021/06/22 00:49:47;;;;;;;12.23;4.35;;;13.90;89.80;;;;;;5094950;28;20035;-81
2021/06/22 00:52:13;;;;;;;9.38;4.32;;;13.80;89.50;;;;;;5095091;28;20032;-80
2021/06/22 00:54:39;;;;;;;13.85;4.47;;;13.80;89.50;;;;;;5078034;28;20119;-80
2021/06/22 00:57:06;;;;;;;10.93;5.13;;;13.80;90.00;;;;;;5096232;28;20115;-80
2021/06/22 00:59:32;;;;;;;14.23;5.45;;;13.70;90.10;;;;;;5094701;28;20115;-80
2021/06/22 01:01:58;;;;;;;13.68;4.88;;;13.70;90.20;;;;;;5094590;28;20106;-81
2021/06/22 01:04:27;;;;;;;11.85;4.85;;;13.70;90.10;;;;;;5096071;28;20082;-80
2021/06/22 01:06:57;;;;;;;9.90;4.40;;;13.60;90.00;;;;;;5096019;28;20020;-80
2021/06/22 01:09:23;;;;;;;12.55;4.97;;;13.60;90.20;;;;;;5094651;28;20483;-80
2021/06/22 01:11:50;;;;;;;8.70;4.35;;;13.50;90.10;;;;;;5095948;28;20032;-80
2021/06/22 01:14:15;;;;;;;12.15;4.95;;;13.50;90.20;;;;;;5095965;28;20487;-80
2021/06/22 01:16:42;;;;;;;11.25;4.40;;;13.50;90.30;;;;;;5094525;28;20028;-80
2021/06/22 01:19:09;;;;;;;15.77;4.30;;;13.50;90.40;;;;;;5094486;28;20031;-79
2021/06/22 01:21:36;;;;;;;11.02;4.65;;;13.60;90.40;;;;;;5077488;28;20402;-79
2021/06/22 01:24:21;;;;;;;10.63;4.55;;;13.50;90.30;;;;;;5095645;28;20124;-80
2021/06/22 01:26:48;;;;;;;;;;;13.50;90.40;;;;;;5096163;28;20468;-80
2021/06/22 01:29:14;;;;;;;11.70;4.80;;;13.50;90.40;;;;;;5095820;28;19915;-80
2021/06/22 01:31:40;;;;;;;9.77;4.10;;;13.50;90.50;;;;;;5093359;28;20039;-80
2021/06/22 01:34:06;;;;;;;11.43;4.45;;;13.50;90.50;;;;;;5094120;28;20122;-80
2021/06/22 01:36:34;;;;;;;11.48;4.97;;;13.50;90.50;;;;;;5094222;28;20058;-80
2021/06/22 01:39:01;;;;;;;12.98;4.35;;;13.40;90.40;;;;;;5077489;28;20028;-80
2021/06/22 01:41:27;;;;;;;11.07;4.45;;;13.40;90.50;;;;;;5077320;28;20024;-80
2021/06/22 01:43:52;;;;;;;12.30;4.93;;;13.30;90.40;;;;;;5094178;28;20073;-79
2021/06/22 01:46:19;;;;;;;10.10;4.68;;;13.30;90.50;;;;;;5095200;28;20375;-81
2021/06/22 01:48:45;;;;;;;14.30;5.70;;;13.30;90.50;;;;;;5077183;28;20020;-80
2021/06/22 01:51:11;;;;;;;13.18;5.30;;;13.30;90.70;;;;;;5093964;28;20022;-80
2021/06/22 01:53:37;;;;;;;14.50;4.50;;;13.30;91.00;;;;;;5077067;28;20033;-80
2021/06/22 01:56:03;;;;;;;13.07;5.32;;;13.20;90.70;;;;;;5077133;28;20084;-80
2021/06/22 01:58:29;;;;;;;10.35;4.55;;;13.20;90.70;;;;;;5077116;28;20032;-80
2021/06/22 02:00:56;;;;;;;15.10;4.93;;;13.20;90.80;;;;;;5094828;28;20035;-80
2021/06/22 02:03:26;;;;;;;8.60;4.38;;;13.20;90.90;;;;;;5094778;28;20051;-79
2021/06/22 02:05:52;;;;;;;10.73;4.32;;;13.10;90.80;;;;;;5094944;28;20407;-80
2021/06/22 02:08:18;;;;;;;8.70;4.75;;;13.10;90.80;;;;;;5093437;28;20084;-80
2021/06/22 02:10:45;;;;;;;7.97;4.18;;;13.10;90.90;;;;;;5094891;28;20089;-80
2021/06/22 02:13:11;;;;;;;11.18;5.03;;;13.10;90.90;;;;;;5094724;28;20078;-80
2021/06/22 02:15:38;;;;;;;11.48;4.85;;;13.00;90.90;;;;;;5093459;28;20028;-80
2021/06/22 02:18:05;;;;;;;16.42;4.90;;;13.00;91.00;;;;;;5093454;28;20040;-80
2021/06/22 02:20:32;;;;;;;9.43;4.90;;;13.00;91.00;;;;;;5094674;28;20028;-80
2021/06/22 02:22:57;;;;;;;9.00;5.10;;;13.00;91.10;;;;;;5094411;28;20537;-80
2021/06/22 02:25:23;;;;;;;9.05;4.15;;;13.00;91.30;;;;;;5076428;28;20032;-80
2021/06/22 02:27:49;;;;;;;12.48;4.65;;;13.00;91.30;;;;;;5093191;28;20016;-80
2021/06/22 02:30:18;;;;;;;9.95;4.43;;;13.00;91.30;;;;;;5076252;28;20376;-79
2021/06/22 02:32:43;;;;;;;8.60;3.97;;;13.00;91.40;;;;;;5094342;28;20554;-80
2021/06/22 02:35:12;;;;;;;9.15;4.07;;;13.00;91.70;;;;;;5094342;28;20044;-80
2021/06/22 02:37:39;;;;;;;15.70;5.18;;;13.00;91.50;;;;;;5094350;28;20081;-80
2021/06/22 02:40:06;;;;;;;12.35;4.88;;;13.00;91.50;;;;;;5094359;28;20031;-80
2021/06/22 02:42:32;;;;;;;11.18;5.70;;;13.00;91.60;;;;;;5092927;28;20020;-80
2021/06/22 02:44:58;;;;;;;11.25;4.93;;;13.00;91.50;;;;;;5075906;28;20375;-80
2021/06/22 02:47:23;;;;;;;13.00;5.43;;;12.90;91.40;;;;;;5092967;28;20107;-80
2021/06/22 02:49:50;;;;;;;11.07;5.60;;;12.90;91.40;;;;;;5076180;28;20031;-80
2021/06/22 02:52:16;;;;;;;13.63;4.90;;;12.90;91.40;;;;;;5075895;28;20037;-80
2021/06/22 02:54:41;;;;;;;12.10;5.15;;;12.80;91.40;;;;;;5092691;28;20383;-79
2021/06/22 02:57:09;;;;;;;11.82;5.50;;;12.80;91.50;;;;;;5075756;28;20028;-80
2021/06/22 02:59:36;;;;;;;9.77;4.97;;;12.80;91.50;;;;;;5093917;28;20548;-80
2021/06/22 03:02:05;;;;;;;12.57;5.07;;;12.80;91.50;;;;;;5092352;28;20472;-80
2021/06/22 03:04:31;;;;;;;9.32;4.70;;;12.70;91.50;;;;;;5094000;28;20059;-79
2021/06/22 03:06:57;;;;;;;13.93;6.18;;;12.70;91.60;;;;;;5093903;28;20031;-80
2021/06/22 03:09:23;;;;;;;14.35;4.95;;;12.70;91.70;;;;;;5093834;28;20464;-79
2021/06/22 03:11:50;;;;;;;13.52;5.55;;;12.80;91.80;;;;;;5093757;28;20412;-79
2021/06/22 03:14:17;;;;;;;10.63;5.78;;;12.70;91.80;;;;;;5092534;28;20388;-80
2021/06/22 03:16:43;;;;;;;11.80;5.03;;;12.70;91.80;;;;;;5075746;28;20123;-79
2021/06/22 03:19:11;;;;;;;13.20;5.25;;;12.70;91.90;;;;;;5092498;28;20042;-79
2021/06/22 03:21:37;;;;;;;10.48;5.45;;;12.70;92.00;;;;;;5092443;28;20063;-80
2021/06/22 03:24:03;;;;;;;14.95;5.75;;;12.70;92.10;;;;;;5075359;28;20047;-80
2021/06/22 03:26:29;;;;;;;11.35;5.15;;;12.70;92.10;;;;;;5093636;28;20032;-80
2021/06/22 03:28:54;;;;;;;9.48;5.10;;;12.70;92.20;;;;;;5092196;28;20105;-80
2021/06/22 03:31:20;;;;;;;11.30;5.35;;;12.60;92.10;;;;;;5092393;28;20024;-80
2021/06/22 03:33:46;;;;;;;13.32;5.78;;;12.70;92.30;;;;;;5092269;28;20020;-79
2021/06/22 03:36:12;;;;;;;10.15;4.78;;;12.70;92.20;;;;;;5075560;28;20387;-80
2021/06/22 03:38:37;;;;;;;10.18;4.68;;;12.60;92.30;;;;;;5093262;28;20365;-80
2021/06/22 03:41:03;;;;;;;13.35;4.65;;;12.70;92.60;;;;;;5075136;28;20027;-81
2021/06/22 03:43:29;;;;;;;10.63;4.68;;;12.60;92.20;;;;;;5091987;28;20028;-81
2021/06/22 03:45:55;;;;;;;16.63;5.72;;;12.60;92.20;;;;;;5091855;28;20021;-81
2021/06/22 03:48:21;;;;;;;19.83;5.55;;;12.60;92.20;;;;;;5092135;28;20024;-79
2021/06/22 03:50:47;;;;;;;11.73;5.32;;;12.60;92.30;;;;;;5092011;28;20434;-80
2021/06/22 03:53:12;;;;;;;11.23;4.82;;;12.60;92.20;;;;;;5092026;28;20024;-79
2021/06/22 03:55:38;;;;;;;10.25;4.72;;;12.60;92.20;;;;;;5076601;28;20035;-80
2021/06/22 03:58:05;;;;;;;12.32;4.70;;;12.60;92.20;;;;;;5096072;28;20123;-80
2021/06/22 04:00:31;;;;;;;11.30;5.15;;;12.60;92.40;;;;;;5094431;28;20115;-80
2021/06/22 04:02:59;;;;;;;11.00;5.97;;;12.60;92.40;;;;;;5095634;28;20556;-79
2021/06/22 04:05:25;;;;;;;10.00;4.95;;;12.60;92.40;;;;;;5096110;28;20027;-79
2021/06/22 04:07:51;;;;;;;13.68;4.47;;;12.60;92.50;;;;;;5093878;28;20024;-82
2021/06/22 04:10:17;;;;;;;15.55;5.45;;;12.60;92.40;;;;;;5095651;28;20027;-78
2021/06/22 04:12:43;;;;;;;16.83;6.35;;;12.60;92.50;;;;;;5095859;28;20028;-80
2021/06/22 04:15:09;;;;;;;12.18;5.55;;;12.60;92.60;;;;;;5078565;28;20032;-80
2021/06/22 04:17:35;;;;;;;14.85;4.88;;;12.60;92.60;;;;;;5095334;28;20042;-80
2021/06/22 04:20:01;;;;;;;10.55;5.28;;;12.60;92.60;;;;;;5097057;28;20115;-80
2021/06/22 04:22:27;;;;;;;13.98;4.60;;;12.70;92.60;;;;;;5095691;28;20391;-79
2021/06/22 04:24:53;;;;;;;11.93;4.80;;;12.60;92.50;;;;;;5095981;28;20026;-80
2021/06/22 04:27:18;;;;;;;14.20;5.60;;;12.70;92.50;;;;;;5095584;28;20475;-78
2021/06/22 04:29:44;;;;;;;10.55;5.18;;;12.70;92.50;;;;;;5095355;28;20031;-80
2021/06/22 04:32:10;;;;;;;10.07;4.93;;;12.70;92.40;;;;;;5095612;28;20190;-80
2021/06/22 04:34:36;;;;;;;13.77;6.05;;;12.70;92.40;;;;;;5078531;28;20382;-80
2021/06/22 04:37:02;;;;;;;12.77;4.82;;;12.80;92.40;;;;;;5095415;28;20017;-81
2021/06/22 04:39:27;;;;;;;12.65;5.55;;;12.80;92.40;;;;;;5078411;28;20028;-81
2021/06/22 04:41:53;;;;;;;14.98;5.55;;;12.80;92.30;;;;;;5095330;28;20437;-80
2021/06/22 04:44:19;;;;;;;13.02;6.40;;;12.80;92.30;;;;;;5095299;28;20024;-80
2021/06/22 04:46:44;;;;;;;13.82;5.75;;;12.90;92.20;;;;;;5096482;28;20076;-82
2021/06/22 04:49:10;;;;;;;14.18;6.20;;;12.90;92.10;;;;;;5096434;28;20048;-81
2021/06/22 04:51:36;;;;;;;14.90;6.85;;;12.90;92.10;;;;;;5095286;28;20107;-80
2021/06/22 04:54:01;;;;;;;13.15;5.50;;;13.00;92.10;;;;;;5078218;28;20471;-79
2021/06/22 04:56:27;;;;;;;15.27;6.53;;;13.00;92.10;;;;;;5078073;28;20020;-81
2021/06/22 04:58:56;;;;;;;15.88;5.97;;;13.00;92.10;;;;;;5078237;28;20034;-78
2021/06/22 05:01:23;;;;;;;17.20;6.93;;;13.10;92.00;;;;;;5096042;28;20475;-81
2021/06/22 05:03:49;;;;;;;11.88;6.13;;;13.10;92.00;;;;;;5094895;28;20046;-80
2021/06/22 05:06:15;;;;;;;13.98;6.30;;;13.10;91.90;;;;;;5077598;28;20371;-78
2021/06/22 05:08:40;;;;;;;10.95;6.18;;;13.20;91.80;;;;;;5095790;28;20028;-80
2021/06/22 05:11:06;;;;;;;14.52;6.22;;;13.30;91.80;;;;;;5095817;28;20036;-82
2021/06/22 05:13:33;;;;;;;14.00;7.50;;;13.40;91.70;;;;;;5094389;28;20206;-83
2021/06/22 05:15:59;;;;;;;15.80;7.28;;;13.40;91.60;;;;;;5095274;28;20023;-80
2021/06/22 05:18:24;;;;;;;17.55;7.82;;;13.50;91.40;;;;;;5094247;28;20032;-82
2021/06/22 05:20:50;;;;;;;16.63;8.35;;;13.60;91.30;;;;;;5077877;28;20429;-83
2021/06/22 05:23:16;;;;;;;11.00;7.30;;;13.60;91.00;;;;;;5077737;28;20352;-81
2021/06/22 05:25:43;;;;;;;18.83;7.70;;;13.60;91.00;;;;;;5093586;28;20035;-82
2021/06/22 05:28:09;;;;;;;15.77;7.40;;;13.70;91.00;;;;;;5095280;28;20031;-82
2021/06/22 05:30:35;;;;;;;14.77;7.10;;;13.80;91.00;;;;;;5093818;28;20490;-81
2021/06/22 05:33:02;;;;;;;10.77;7.55;;;13.90;90.90;;;;;;5093707;28;20024;-83
2021/06/22 05:35:27;;;;;;;12.23;6.47;;;13.90;90.70;;;;;;5076838;28;20107;-81
2021/06/22 05:37:53;;;;;;;12.75;6.97;;;14.00;90.60;;;;;;5093514;28;20142;-82
2021/06/22 05:40:19;;;;;;;16.75;7.88;;;14.10;90.30;;;;;;5094200;28;20016;-77
2021/06/22 05:42:44;;;;;;;13.02;6.55;;;14.10;90.20;;;;;;5091430;28;20115;-77
2021/06/22 05:45:10;;;;;;;14.50;7.03;;;14.20;90.10;;;;;;5086460;28;20612;-78
2021/06/22 05:47:36;;;;;;;14.90;8.10;;;14.30;89.90;;;;;;5089425;28;20027;-77
2021/06/22 05:50:04;;;;;;;17.27;7.60;;;14.40;89.40;;;;;;5092635;28;20116;-77
2021/06/22 05:52:29;;;;;;;15.30;7.90;;;14.40;89.30;;;;;;5093805;28;20517;-78
2021/06/22 05:54:55;;;;;;;14.57;7.03;;;14.40;89.30;;;;;;5091361;28;20052;-77
2021/06/22 05:57:20;;;;;;;11.25;6.82;;;14.50;89.20;;;;;;5090420;28;20384;-77
2021/06/22 05:59:46;;;;;;;12.60;7.35;;;14.60;89.10;;;;;;5083322;28;20025;-77
2021/06/22 06:02:12;;;;;;;15.65;7.28;;;14.70;88.90;;;;;;5077023;28;20046;-77
2021/06/22 06:04:37;;;;;;;14.63;8.25;;;14.70;88.30;;;;;;5036093;28;20106;-77
2021/06/22 06:07:03;;;;;;;15.00;9.02;;;14.80;87.80;;;;;;5036456;28;20033;-77
2021/06/22 06:09:29;;;;;;;16.42;8.18;;;14.80;87.60;;;;;;5036445;28;20040;-77
2021/06/22 06:11:55;;;;;;;15.07;7.75;;;14.90;87.40;;;;;;5037082;28;20404;-78
2021/06/22 06:14:22;;;;;;;13.98;8.10;;;15.00;86.50;;;;;;5053504;28;20083;-77
2021/06/22 06:16:48;;;;;;;13.40;7.65;;;15.00;86.20;;;;;;5053604;28;20079;-77
2021/06/22 06:19:13;;;;;;;14.45;8.65;;;15.10;86.00;;;;;;5052745;28;20085;-78
2021/06/22 06:21:39;;;;;;;15.88;7.70;;;15.10;85.70;;;;;;5037228;28;20125;-78
2021/06/22 06:24:06;;;;;;;14.45;7.15;;;15.20;85.70;;;;;;5053417;28;20395;-78
2021/06/22 06:26:41;;;;;;;14.18;8.52;;;15.30;84.90;;;;;;5032851;28;20026;-76
2021/06/22 06:29:15;;;;;;;14.75;7.85;;;15.40;84.30;;;;;;5034399;28;20370;-78
2021/06/22 06:31:41;;;;;;;15.10;7.90;;;15.40;84.20;;;;;;5033706;28;20021;-79
2021/06/22 06:34:06;;;;;;;17.60;7.80;;;15.50;83.80;;;;;;5035594;28;20098;-78
2021/06/22 06:36:32;;;;;;;16.45;9.15;;;15.60;83.30;;;;;;5033556;28;20022;-78
2021/06/22 06:38:58;;;;;;;17.45;8.45;;;15.60;82.10;;;;;;5052431;28;20021;-77
2021/06/22 06:41:24;;;;;;;13.15;7.90;;;15.70;82.50;;;;;;5060809;28;20471;-76
2021/06/22 06:43:50;;;;;;;14.55;7.80;;;15.70;82.40;;;;;;5053880;28;20040;-77
2021/06/22 06:46:15;;;;;;;13.05;7.90;;;15.80;82.10;;;;;;5052995;28;20099;-78
2021/06/22 06:48:42;;;;;;;13.23;7.57;;;15.90;81.40;;;;;;5035546;28;20400;-78
2021/06/22 06:51:08;;;;;;;13.10;7.95;;;15.90;81.10;;;;;;5052261;28;20417;-78
2021/06/22 06:53:33;;;;;;;13.82;7.97;;;16.00;81.00;;;;;;5052289;28;20057;-78
2021/06/22 06:55:59;;;;;;;18.83;8.73;;;16.10;80.50;;;;;;5052508;28;20037;-78
2021/06/22 06:58:24;;;;;;;17.10;7.95;;;16.10;80.00;;;;;;5052492;28;20477;-77
2021/06/22 07:00:50;;;;;;;17.15;7.93;;;16.20;79.90;;;;;;5052430;28;20527;-78
2021/06/22 07:03:16;;;;;;;14.23;8.25;;;16.30;79.30;;;;;;5071054;28;20055;-77
2021/06/22 07:05:41;;;;;;;15.40;9.20;;;16.30;77.80;;;;;;5092384;28;20479;-78
2021/06/22 07:08:07;;;;;;;13.07;9.13;;;16.30;76.00;;;;;;5093662;28;20085;-79
2021/06/22 07:10:33;;;;;;;14.82;8.52;;;16.40;75.40;;;;;;5075329;28;20033;-78
2021/06/22 07:13:00;;;;;;;16.25;9.85;;;16.40;75.60;;;;;;5092087;28;20442;-77
2021/06/22 07:15:26;;;;;;;12.77;7.70;;;16.40;74.80;;;;;;5093741;28;20039;-77
2021/06/22 07:17:52;;;;;;;14.77;9.25;;;16.50;74.50;;;;;;5092474;28;20028;-77
2021/06/22 07:20:19;;;;;;;14.68;8.52;;;16.60;73.70;;;;;;5093395;28;20478;-78
2021/06/22 07:22:44;;;;;;;19.38;9.55;;;16.60;73.90;;;;;;5092130;28;20034;-77
2021/06/22 07:25:10;;;;;;;13.02;7.70;;;16.70;73.50;;;;;;5093705;28;20059;-78
2021/06/22 07:27:36;;;;;;;14.15;8.30;;;16.70;73.10;;;;;;5092142;28;20032;-79
2021/06/22 07:30:03;;;;;;;15.35;8.50;;;16.80;73.00;;;;;;5074253;28;20031;-77
2021/06/22 07:32:29;;;;;;;15.65;8.30;;;16.80;72.50;;;;;;5092005;28;20020;-77
2021/06/22 07:34:54;;;;;;;13.73;8.95;;;16.90;72.50;;;;;;5092048;28;20039;-78
2021/06/22 07:37:20;;;;;;;19.70;9.48;;;16.90;72.00;;;;;;5092044;28;20039;-77
2021/06/22 07:39:46;;;;;;;19.90;9.10;;;16.90;72.30;;;;;;5091859;28;20036;-77
2021/06/22 07:42:11;;;;;;;12.52;8.77;;;16.90;71.90;;;;;;5092101;28;20111;-78
2021/06/22 07:44:37;;;;;;;14.38;9.23;;;17.00;71.60;;;;;;5092209;28;20036;-78
2021/06/22 07:47:03;;;;;;;14.88;9.30;;;17.00;70.90;;;;;;5060023;28;20044;-78
2021/06/22 07:49:29;;;;;;;12.07;8.73;;;17.10;70.80;;;;;;5072272;28;20041;-78
2021/06/22 07:51:55;;;;;;;15.82;8.85;;;17.10;70.10;;;;;;5072308;28;20477;-77
2021/06/22 07:54:20;;;;;;;15.85;9.38;;;17.20;69.90;;;;;;5072384;28;20029;-78
2021/06/22 07:56:46;;;;;;;14.55;9.40;;;17.20;68.60;;;;;;5091968;28;20032;-78
2021/06/22 07:59:12;;;;;;;13.20;8.80;;;17.30;68.80;;;;;;5074862;28;20034;-78
2021/06/22 08:01:37;;;;;;;14.13;9.00;;;17.30;68.50;;;;;;5068621;28;20060;-77
2021/06/22 08:04:03;;;;;;;13.10;9.15;;;17.30;68.20;;;;;;5071594;28;20053;-77
2021/06/22 08:06:31;;;;;;;16.67;9.55;;;17.30;68.20;;;;;;5072776;28;20104;-78
2021/06/22 08:08:56;;;;;;;13.82;9.82;;;17.40;68.00;;;;;;5055401;28;20056;-78
2021/06/22 08:11:22;;;;;;;21.02;9.25;;;17.30;68.00;;;;;;5071434;28;20068;-76
2021/06/22 08:13:47;;;;;;;13.63;9.07;;;17.40;68.40;;;;;;5071513;28;20027;-78
2021/06/22 08:16:13;;;;;;;14.55;9.00;;;17.50;68.10;;;;;;5071771;28;20043;-78
2021/06/22 08:18:38;;;;;;;13.07;8.23;;;17.60;67.80;;;;;;5071587;28;20452;-79
2021/06/22 08:21:05;;;;;;;14.52;9.77;;;17.70;67.70;;;;;;5071618;28;20033;-77
2021/06/22 08:23:30;;;;;;;13.55;8.73;;;17.70;67.00;;;;;;5071615;28;20032;-78
2021/06/22 08:25:56;;;;;;;12.82;8.50;;;17.80;67.10;;;;;;5071651;28;20104;-78
2021/06/22 08:28:23;;;;;;;13.32;8.88;;;17.90;67.30;;;;;;5071364;28;20144;-79
2021/06/22 08:30:50;;;;;;;15.88;9.43;;;18.00;67.40;;;;;;5088378;28;20040;-77
2021/06/22 08:33:16;;;;;;;10.85;7.72;;;18.10;67.40;;;;;;5072600;28;20103;-78
2021/06/22 08:35:42;;;;;;;16.58;8.85;;;18.20;66.80;;;;;;5088145;28;20548;-77
2021/06/22 08:38:10;;;;;;;13.18;9.02;;;18.30;66.80;;;;;;5091379;28;20122;-78
2021/06/22 08:40:42;;;;;;;12.48;8.18;;;18.50;66.20;;;;;;5091584;28;20484;-77
2021/06/22 08:43:10;;;;;;;14.40;8.35;;;18.50;65.80;;;;;;5095272;28;20024;-78
2021/06/22 08:45:37;;;;;;;14.88;8.45;;;18.70;65.70;;;;;;5095172;28;20024;-77
2021/06/22 08:48:08;;;;;;;11.73;6.93;;;18.80;65.40;;;;;;5078260;28;20114;-78
2021/06/22 08:50:35;;;;;;;12.13;7.43;;;18.90;64.70;;;;;;5094945;28;20051;-79
2021/06/22 08:53:00;;;;;;;14.32;9.10;;;19.00;64.10;;;;;;5095040;28;20383;-78
2021/06/22 08:55:26;;;;;;;11.43;8.18;;;19.00;64.10;;;;;;5078692;28;20031;-78
2021/06/22 08:57:54;;;;;;;13.27;8.10;;;19.10;63.60;;;;;;5070603;28;20398;-77
2021/06/22 09:00:20;;;;;;;12.43;7.60;;;19.20;62.90;;;;;;5074964;28;20042;-77
2021/06/22 09:02:56;;;;;;;15.07;8.90;;;19.20;62.20;;;;;;5076279;28;20543;-78
2021/06/22 09:05:24;;;;;;;13.48;7.25;;;19.30;62.20;;;;;;5076285;28;20099;-78
2021/06/22 09:07:56;;;;;;;18.52;9.13;;;19.40;62.20;;;;;;5075183;28;20028;-78
2021/06/22 09:10:29;;;;;;;10.93;7.30;;;19.40;62.60;;;;;;5093146;28;20079;-78
2021/06/22 09:12:56;;;;;;;10.10;7.45;;;19.60;62.10;;;;;;5095172;28;20017;-78
2021/06/22 09:15:32;;;;;;;13.68;7.07;;;19.70;61.80;;;;;;5096016;28;20024;-80
2021/06/22 09:17:58;;;;;;;13.20;8.13;;;19.80;61.60;;;;;;5095292;28;20082;-78
2021/06/22 09:20:39;;;;;;;12.48;7.85;;;19.80;61.00;;;;;;5094769;28;20384;-78
2021/06/22 09:23:10;;;;;;;11.82;8.30;;;19.90;60.10;;;;;;5095089;28;20055;-77
2021/06/22 09:25:36;;;;;;;12.10;7.40;;;20.00;59.80;;;;;;5096083;28;20024;-77
2021/06/22 09:28:02;;;;;;;11.60;7.50;;;20.10;59.80;;;;;;5094745;28;20395;-78
2021/06/22 09:30:37;;;;;;;10.63;7.20;;;20.20;59.30;;;;;;5094350;28;20024;-78
2021/06/22 09:33:15;;;;;;;13.95;7.47;;;20.40;59.10;;;;;;5093944;28;20372;-77
2021/06/22 09:35:41;;;;;;;10.73;6.13;;;20.60;59.50;;;;;;5092699;28;20077;-77
2021/06/22 09:38:07;;;;;;;12.50;6.95;;;20.70;58.60;;;;;;5094080;28;20051;-79
2021/06/22 09:40:32;;;;;;;13.77;7.10;;;20.90;58.40;;;;;;5093760;28;20024;-80
2021/06/22 09:42:58;;;;;;;11.30;6.75;;;21.00;58.00;;;;;;5093139;28;20531;-77
2021/06/22 09:45:27;;;;;;;12.23;6.65;;;21.00;56.90;;;;;;5076208;28;20035;-79
2021/06/22 09:47:54;;;;;;;12.50;6.70;;;21.00;56.40;;;;;;5093935;28;20012;-78
2021/06/22 09:50:43;;;;;;;9.38;5.82;;;21.00;56.50;;;;;;5093985;28;20024;-77
2021/06/22 09:53:30;;;;;;;10.60;5.47;;;21.00;56.40;;;;;;5094009;28;20013;-78
2021/06/22 09:55:56;;;;;;;10.68;6.28;;;21.00;56.40;;;;;;5092668;28;20073;-78
2021/06/22 09:58:40;;;;;;;8.77;5.28;;;21.00;56.20;;;;;;5093073;28;20077;-78
2021/06/22 10:01:27;;;;;;;11.85;6.45;;;20.90;56.40;;;;;;5077539;28;20371;-80
2021/06/22 10:03:55;;;;;;;9.20;5.53;;;21.00;56.70;;;;;;5093769;28;20032;-81
2021/06/22 10:06:21;;;;;;;9.07;6.05;;;20.90;57.00;;;;;;5095301;28;20035;-79
2021/06/22 10:08:55;;;;;;;12.65;6.38;;;20.90;57.30;;;;;;5095206;28;20028;-79
2021/06/22 10:11:41;;;;;;;12.70;6.03;;;20.90;57.30;;;;;;5095072;28;20386;-81
2021/06/22 10:14:21;;;;;;;9.95;5.72;;;20.90;57.10;;;;;;5093924;28;20128;-81
2021/06/22 10:16:47;;;;;;;10.40;5.97;;;20.90;57.30;;;;;;5094286;28;20026;-78
2021/06/22 10:19:13;;;;;;;8.45;5.13;;;21.00;57.30;;;;;;5059533;28;20029;-77
2021/06/22 10:21:39;;;;;;;8.57;5.30;;;21.00;57.30;;;;;;5077987;28;20084;-81
2021/06/22 10:24:05;;;;;;;7.90;5.25;;;21.00;57.70;;;;;;5067271;28;20020;-81
2021/06/22 10:26:31;;;;;;;9.55;5.82;;;21.10;58.20;;;;;;5057212;28;20356;-82
2021/06/22 10:28:58;;;;;;;9.52;4.93;;;21.20;57.90;;;;;;5075565;28;20039;-80
2021/06/22 10:31:25;;;;;;;11.43;4.93;;;21.20;57.20;;;;;;5070284;28;20365;-79
2021/06/22 10:33:50;;;;;;;9.75;4.65;;;21.30;57.00;;;;;;5092957;28;20067;-79
2021/06/22 10:36:38;;;;;;;7.95;4.40;;;21.30;56.90;;;;;;5092195;28;20100;-79
2021/06/22 10:39:19;;;;;;;9.55;4.68;;;21.40;56.80;;;;;;5094275;28;20016;-80
2021/06/22 10:41:45;;;;;;;9.65;4.55;;;21.40;56.50;;;;;;5092722;28;20090;-79
2021/06/22 10:44:24;;;;;;;9.98;4.75;;;21.60;56.20;;;;;;5094241;28;20443;-82
2021/06/22 10:47:16;;;;;;;8.52;5.05;;;21.70;55.70;;;;;;5094538;28;20020;-78
2021/06/22 10:50:04;;;;;;;10.20;4.85;;;21.80;55.10;;;;;;5101744;28;20020;-78
2021/06/22 10:52:41;;;;;;;8.13;4.47;;;21.90;55.00;;;;;;5096304;28;20027;-79
2021/06/22 10:55:18;;;;;;;8.73;5.18;;;22.00;54.70;;;;;;5095334;28;20039;-79
2021/06/22 10:58:05;;;;;;;11.88;4.80;;;22.30;54.50;;;;;;5094030;28;20024;-79
2021/06/22 11:00:56;;;;;;;7.50;4.43;;;22.50;53.40;;;;;;5094706;28;20096;-80
2021/06/22 11:03:24;;;;;;;8.40;4.80;;;22.70;52.70;;;;;;5093029;28;20036;-78
2021/06/22 11:06:10;;;;;;;9.13;5.28;;;22.80;53.00;;;;;;5094298;28;20024;-79
2021/06/22 11:08:41;;;;;;;11.10;6.18;;;23.00;52.20;;;;;;5093047;28;20114;-79
2021/06/22 11:11:06;;;;;;;9.70;5.35;;;23.00;52.50;;;;;;5076401;28;20408;-78
2021/06/22 11:14:00;;;;;;;7.57;4.90;;;23.10;52.40;;;;;;5094050;28;20024;-78
2021/06/22 11:16:31;;;;;;;8.77;4.80;;;23.30;51.50;;;;;;5092664;28;20082;-80
2021/06/22 11:19:06;;;;;;;7.88;4.75;;;23.50;51.20;;;;;;5092339;28;20687;-82
2021/06/22 11:21:56;;;;;;;8.23;4.97;;;23.60;50.80;;;;;;5091846;28;20020;-79
2021/06/22 11:24:27;;;;;;;6.90;4.78;;;23.70;50.40;;;;;;5091418;28;20032;-79
2021/06/22 11:26:53;;;;;;;8.52;4.88;;;24.00;50.00;;;;;;5092317;28;20030;-78
2021/06/22 11:29:21;;;;;;;7.78;5.07;;;24.10;49.80;;;;;;5092388;28;20024;-79
2021/06/22 11:31:50;;;;;;;9.38;4.80;;;24.30;49.50;;;;;;5073986;28;20024;-80
2021/06/22 11:34:25;;;;;;;10.32;4.85;;;24.50;49.20;;;;;;5091260;28;20036;-79
2021/06/22 11:36:52;;;;;;;8.45;4.18;;;24.60;48.90;;;;;;5092217;28;20111;-78
2021/06/22 11:39:47;;;;;;;9.13;4.45;;;24.80;48.80;;;;;;5092004;28;20024;-79
2021/06/22 11:42:14;;;;;;;5.97;4.28;;;25.00;47.90;;;;;;5068715;28;20131;-78
2021/06/22 11:44:43;;;;;;;10.25;4.70;;;25.20;47.70;;;;;;5090575;28;20020;-80
2021/06/22 11:47:28;;;;;;;6.93;3.75;;;25.20;47.30;;;;;;5092469;28;20089;-79
2021/06/22 11:49:56;;;;;;;6.93;4.13;;;25.30;46.80;;;;;;5092036;28;20479;-82
2021/06/22 11:52:31;;;;;;;6.07;3.88;;;25.30;47.30;;;;;;5092736;28;20153;-79
2021/06/22 11:55:02;;;;;;;6.72;4.05;;;25.40;47.10;;;;;;5092361;28;20020;-79
2021/06/22 11:57:31;;;;;;;9.02;3.70;;;25.60;46.50;;;;;;5090716;28;20351;-81
2021/06/22 12:00:05;;;;;;;5.63;2.97;;;25.80;46.30;;;;;;5073179;28;20025;-79
2021/06/22 12:02:30;;;;;;;5.07;3.20;;;26.00;45.90;;;;;;5071167;28;20078;-80
2021/06/22 12:04:57;;;;;;;8.00;3.65;;;26.20;45.60;;;;;;5087330;28;20035;-78
2021/06/22 12:07:23;;;;;;;6.30;3.28;;;26.40;45.10;;;;;;5057906;28;20070;-79
2021/06/22 12:09:49;;;;;;;6.13;2.90;;;26.50;45.00;;;;;;5090778;28;20453;-80
2021/06/22 12:12:16;;;;;;;4.95;2.72;;;26.80;44.70;;;;;;5090904;28;20028;-79
2021/06/22 12:14:52;;;;;;;6.22;2.92;;;26.90;44.00;;;;;;5092952;28;20036;-79
2021/06/22 12:17:20;;;;;;;5.15;3.10;;;27.00;43.00;;;;;;5078140;28;20383;-79
2021/06/22 12:19:47;;;;;;;4.43;2.38;;;27.20;43.20;;;;;;5078632;28;20031;-79
2021/06/22 12:22:15;;;;;;;8.15;3.17;;;27.30;43.00;;;;;;5095770;28;20109;-78
2021/06/22 12:24:42;;;;;;;5.53;2.88;;;27.60;43.00;;;;;;5095483;28;20032;-81
2021/06/22 12:27:08;;;;;;;5.95;3.15;;;27.80;42.80;;;;;;5095389;28;20020;-81
2021/06/22 12:29:35;;;;;;;6.38;2.78;;;27.80;43.00;;;;;;5078623;28;20028;-82
2021/06/22 12:32:06;;;;;;;5.65;2.58;;;27.80;42.60;;;;;;5094901;28;20484;-81
2021/06/22 12:34:38;;;;;;;4.57;2.15;;;27.90;42.10;;;;;;5095027;28;20020;-81
2021/06/22 12:37:08;;;;;;;4.05;2.08;;;28.00;42.00;;;;;;5095126;28;20027;-79
2021/06/22 12:39:39;;;;;;;5.05;1.98;;;28.10;41.80;;;;;;5095001;28;20447;-80
2021/06/22 12:42:07;;;;;;;5.93;2.40;;;28.20;41.50;;;;;;5078563;28;20032;-81
2021/06/22 12:44:33;;;;;;;5.28;2.08;;;28.40;41.50;;;;;;5095030;28;20020;-79